sensor_id;sensor_type;location;lat;lon;timestamp;P1;durP1;ratioP1;P2;durP2;ratioP2
33367;SDS011;19724;51.114;13.906;2023-02-15T00:00:25;109.70;;;50.13;;
33367;SDS011;19724;51.114;13.906;2023-02-15T00:02:50;106.88;;;50.45;;
33367;SDS011;19724;51.114;13.906;2023-02-15T00:05:16;109.20;;;50.65;;
33367;SDS011;19724;51.114;13.906;2023-02-15T00:07:42;120.00;;;52.75;;
33367;SDS011;19724;51.114;13.906;2023-02-15T00:10:09;121.32;;;52.75;;
33367;SDS011;19724;51.114;13.906;2023-02-15T00:12:36;112.40;;;50.63;;
33367;SDS011;19724;51.114;13.906;2023-02-15T00:15:01;126.43;;;53.97;;
33367;SDS011;19724;51.114;13.906;2023-02-15T00:17:28;129.25;;;55.75;;
33367;SDS011;19724;51.114;13.906;2023-02-15T00:19:54;113.45;;;49.90;;
33367;SDS011;19724;51.114;13.906;2023-02-15T00:22:19;126.53;;;54.15;;
33367;SDS011;19724;51.114;13.906;2023-02-15T00:24:45;127.90;;;54.38;;
33367;SDS011;19724;51.114;13.906;2023-02-15T00:27:11;122.75;;;52.80;;
33367;SDS011;19724;51.114;13.906;2023-02-15T00:29:36;121.90;;;53.63;;
33367;SDS011;19724;51.114;13.906;2023-02-15T00:32:02;127.30;;;57.17;;
33367;SDS011;19724;51.114;13.906;2023-02-15T00:34:27;125.55;;;54.28;;
33367;SDS011;19724;51.114;13.906;2023-02-15T00:36:53;112.28;;;51.40;;
33367;SDS011;19724;51.114;13.906;2023-02-15T00:39:19;109.80;;;54.30;;
33367;SDS011;19724;51.114;13.906;2023-02-15T00:41:46;118.90;;;52.60;;
33367;SDS011;19724;51.114;13.906;2023-02-15T00:44:14;116.38;;;53.25;;
33367;SDS011;19724;51.114;13.906;2023-02-15T00:46:40;119.68;;;55.08;;
33367;SDS011;19724;51.114;13.906;2023-02-15T00:49:05;121.72;;;54.92;;
33367;SDS011;19724;51.114;13.906;2023-02-15T00:51:31;117.88;;;51.63;;
33367;SDS011;19724;51.114;13.906;2023-02-15T00:53:57;122.50;;;54.33;;
33367;SDS011;19724;51.114;13.906;2023-02-15T00:56:22;120.63;;;55.40;;
33367;SDS011;19724;51.114;13.906;2023-02-15T00:58:48;119.75;;;50.72;;
33367;SDS011;19724;51.114;13.906;2023-02-15T01:01:15;112.20;;;52.92;;
33367;SDS011;19724;51.114;13.906;2023-02-15T01:03:42;135.75;;;52.97;;
33367;SDS011;19724;51.114;13.906;2023-02-15T01:06:11;133.55;;;56.80;;
33367;SDS011;19724;51.114;13.906;2023-02-15T01:08:38;131.25;;;56.38;;
33367;SDS011;19724;51.114;13.906;2023-02-15T01:11:04;126.75;;;57.78;;
33367;SDS011;19724;51.114;13.906;2023-02-15T01:13:31;135.13;;;59.40;;
33367;SDS011;19724;51.114;13.906;2023-02-15T01:15:57;141.02;;;56.80;;
33367;SDS011;19724;51.114;13.906;2023-02-15T01:18:23;124.75;;;53.58;;
33367;SDS011;19724;51.114;13.906;2023-02-15T01:20:49;137.85;;;58.38;;
33367;SDS011;19724;51.114;13.906;2023-02-15T01:23:15;128.35;;;55.13;;
33367;SDS011;19724;51.114;13.906;2023-02-15T01:25:41;131.10;;;54.83;;
33367;SDS011;19724;51.114;13.906;2023-02-15T01:28:07;133.80;;;56.97;;
33367;SDS011;19724;51.114;13.906;2023-02-15T01:30:32;129.00;;;54.47;;
33367;SDS011;19724;51.114;13.906;2023-02-15T01:32:58;124.28;;;57.15;;
33367;SDS011;19724;51.114;13.906;2023-02-15T01:35:25;131.23;;;56.47;;
33367;SDS011;19724;51.114;13.906;2023-02-15T01:37:52;132.27;;;57.60;;
33367;SDS011;19724;51.114;13.906;2023-02-15T01:40:18;123.97;;;53.42;;
33367;SDS011;19724;51.114;13.906;2023-02-15T01:42:44;127.88;;;56.63;;
33367;SDS011;19724;51.114;13.906;2023-02-15T01:45:19;118.55;;;53.97;;
33367;SDS011;19724;51.114;13.906;2023-02-15T01:47:48;137.05;;;54.75;;
33367;SDS011;19724;51.114;13.906;2023-02-15T01:53:03;139.48;;;55.15;;
33367;SDS011;19724;51.114;13.906;2023-02-15T01:55:44;136.80;;;57.78;;
33367;SDS011;19724;51.114;13.906;2023-02-15T01:58:13;122.53;;;54.28;;
33367;SDS011;19724;51.114;13.906;2023-02-15T02:00:39;129.38;;;56.80;;
33367;SDS011;19724;51.114;13.906;2023-02-15T02:03:05;132.32;;;58.80;;
33367;SDS011;19724;51.114;13.906;2023-02-15T02:05:31;128.20;;;55.15;;
33367;SDS011;19724;51.114;13.906;2023-02-15T02:07:58;134.88;;;57.60;;
33367;SDS011;19724;51.114;13.906;2023-02-15T02:10:26;128.63;;;53.60;;
33367;SDS011;19724;51.114;13.906;2023-02-15T02:12:52;122.38;;;54.85;;
33367;SDS011;19724;51.114;13.906;2023-02-15T02:17:54;118.55;;;51.70;;
33367;SDS011;19724;51.114;13.906;2023-02-15T02:23:51;115.88;;;50.92;;
33367;SDS011;19724;51.114;13.906;2023-02-15T02:26:30;130.73;;;55.50;;
33367;SDS011;19724;51.114;13.906;2023-02-15T02:29:33;112.47;;;49.53;;
33367;SDS011;19724;51.114;13.906;2023-02-15T02:33:03;129.40;;;53.95;;
33367;SDS011;19724;51.114;13.906;2023-02-15T02:40:30;138.00;;;54.08;;
33367;SDS011;19724;51.114;13.906;2023-02-15T02:43:25;135.45;;;54.53;;
33367;SDS011;19724;51.114;13.906;2023-02-15T02:46:13;130.90;;;53.63;;
33367;SDS011;19724;51.114;13.906;2023-02-15T02:48:50;142.82;;;54.08;;
33367;SDS011;19724;51.114;13.906;2023-02-15T02:51:16;129.48;;;52.58;;
33367;SDS011;19724;51.114;13.906;2023-02-15T02:53:46;123.00;;;54.88;;
33367;SDS011;19724;51.114;13.906;2023-02-15T02:56:23;123.32;;;52.03;;
33367;SDS011;19724;51.114;13.906;2023-02-15T02:58:59;113.43;;;48.80;;
33367;SDS011;19724;51.114;13.906;2023-02-15T03:01:34;121.82;;;50.20;;
33367;SDS011;19724;51.114;13.906;2023-02-15T03:04:07;132.27;;;53.65;;
33367;SDS011;19724;51.114;13.906;2023-02-15T03:06:50;109.28;;;49.47;;
33367;SDS011;19724;51.114;13.906;2023-02-15T03:09:33;116.50;;;51.47;;
33367;SDS011;19724;51.114;13.906;2023-02-15T03:12:12;116.90;;;49.22;;
33367;SDS011;19724;51.114;13.906;2023-02-15T03:14:42;124.07;;;49.25;;
33367;SDS011;19724;51.114;13.906;2023-02-15T03:17:11;120.07;;;49.75;;
33367;SDS011;19724;51.114;13.906;2023-02-15T03:19:38;109.38;;;49.88;;
33367;SDS011;19724;51.114;13.906;2023-02-15T03:22:18;112.05;;;47.88;;
33367;SDS011;19724;51.114;13.906;2023-02-15T03:24:55;97.07;;;37.67;;
33367;SDS011;19724;51.114;13.906;2023-02-15T03:27:31;120.40;;;48.85;;
33367;SDS011;19724;51.114;13.906;2023-02-15T03:30:03;103.25;;;46.80;;
33367;SDS011;19724;51.114;13.906;2023-02-15T03:32:32;109.00;;;46.33;;
33367;SDS011;19724;51.114;13.906;2023-02-15T03:34:59;112.88;;;47.72;;
33367;SDS011;19724;51.114;13.906;2023-02-15T03:40:21;107.30;;;47.30;;
33367;SDS011;19724;51.114;13.906;2023-02-15T03:43:21;118.30;;;48.42;;
33367;SDS011;19724;51.114;13.906;2023-02-15T03:45:59;102.28;;;44.47;;
33367;SDS011;19724;51.114;13.906;2023-02-15T03:48:33;109.00;;;45.45;;
33367;SDS011;19724;51.114;13.906;2023-02-15T03:51:05;116.78;;;46.53;;
33367;SDS011;19724;51.114;13.906;2023-02-15T03:53:52;98.72;;;43.28;;
33367;SDS011;19724;51.114;13.906;2023-02-15T03:56:19;100.97;;;46.08;;
33367;SDS011;19724;51.114;13.906;2023-02-15T03:58:44;118.93;;;48.28;;
33367;SDS011;19724;51.114;13.906;2023-02-15T04:01:37;123.68;;;47.28;;
33367;SDS011;19724;51.114;13.906;2023-02-15T04:04:36;101.88;;;46.50;;
33367;SDS011;19724;51.114;13.906;2023-02-15T04:07:06;111.57;;;46.95;;
33367;SDS011;19724;51.114;13.906;2023-02-15T04:09:33;109.30;;;46.70;;
33367;SDS011;19724;51.114;13.906;2023-02-15T04:12:17;119.75;;;48.83;;
33367;SDS011;19724;51.114;13.906;2023-02-15T04:14:43;101.55;;;45.65;;
33367;SDS011;19724;51.114;13.906;2023-02-15T04:17:28;108.80;;;45.63;;
33367;SDS011;19724;51.114;13.906;2023-02-15T04:19:54;104.80;;;43.67;;
33367;SDS011;19724;51.114;13.906;2023-02-15T04:22:38;108.57;;;46.20;;
33367;SDS011;19724;51.114;13.906;2023-02-15T04:25:22;109.43;;;46.05;;
33367;SDS011;19724;51.114;13.906;2023-02-15T04:27:51;98.15;;;44.33;;
33367;SDS011;19724;51.114;13.906;2023-02-15T04:30:19;120.22;;;45.47;;
33367;SDS011;19724;51.114;13.906;2023-02-15T04:32:47;104.63;;;43.53;;
33367;SDS011;19724;51.114;13.906;2023-02-15T04:35:12;100.68;;;45.10;;
33367;SDS011;19724;51.114;13.906;2023-02-15T04:37:39;107.85;;;44.85;;
33367;SDS011;19724;51.114;13.906;2023-02-15T04:40:07;94.25;;;43.85;;
33367;SDS011;19724;51.114;13.906;2023-02-15T04:42:34;90.13;;;43.17;;
33367;SDS011;19724;51.114;13.906;2023-02-15T04:44:59;96.10;;;41.50;;
33367;SDS011;19724;51.114;13.906;2023-02-15T04:47:25;103.18;;;42.15;;
33367;SDS011;19724;51.114;13.906;2023-02-15T04:49:50;102.68;;;40.67;;
33367;SDS011;19724;51.114;13.906;2023-02-15T04:52:16;99.28;;;43.25;;
33367;SDS011;19724;51.114;13.906;2023-02-15T04:54:42;105.78;;;41.40;;
33367;SDS011;19724;51.114;13.906;2023-02-15T04:57:09;104.90;;;44.00;;
33367;SDS011;19724;51.114;13.906;2023-02-15T04:59:34;109.60;;;41.78;;
33367;SDS011;19724;51.114;13.906;2023-02-15T05:02:01;107.82;;;43.92;;
33367;SDS011;19724;51.114;13.906;2023-02-15T05:04:27;110.63;;;45.10;;
33367;SDS011;19724;51.114;13.906;2023-02-15T05:06:52;104.15;;;44.35;;
33367;SDS011;19724;51.114;13.906;2023-02-15T05:09:18;97.30;;;41.17;;
33367;SDS011;19724;51.114;13.906;2023-02-15T05:11:44;101.10;;;39.42;;
33367;SDS011;19724;51.114;13.906;2023-02-15T05:14:09;104.63;;;40.83;;
33367;SDS011;19724;51.114;13.906;2023-02-15T05:16:35;100.45;;;41.97;;
33367;SDS011;19724;51.114;13.906;2023-02-15T05:19:00;97.25;;;37.28;;
33367;SDS011;19724;51.114;13.906;2023-02-15T05:21:26;96.63;;;38.00;;
33367;SDS011;19724;51.114;13.906;2023-02-15T05:23:51;86.32;;;36.65;;
33367;SDS011;19724;51.114;13.906;2023-02-15T05:26:18;94.05;;;39.20;;
33367;SDS011;19724;51.114;13.906;2023-02-15T05:29:04;90.35;;;39.20;;
33367;SDS011;19724;51.114;13.906;2023-02-15T05:31:30;89.85;;;37.08;;
33367;SDS011;19724;51.114;13.906;2023-02-15T05:33:56;88.57;;;35.08;;
33367;SDS011;19724;51.114;13.906;2023-02-15T05:36:22;82.85;;;36.22;;
33367;SDS011;19724;51.114;13.906;2023-02-15T05:38:47;82.95;;;35.85;;
33367;SDS011;19724;51.114;13.906;2023-02-15T05:41:13;88.82;;;38.70;;
33367;SDS011;19724;51.114;13.906;2023-02-15T05:43:39;87.63;;;36.70;;
33367;SDS011;19724;51.114;13.906;2023-02-15T05:46:05;87.97;;;34.35;;
33367;SDS011;19724;51.114;13.906;2023-02-15T05:48:31;84.22;;;37.15;;
33367;SDS011;19724;51.114;13.906;2023-02-15T05:50:57;88.32;;;37.05;;
33367;SDS011;19724;51.114;13.906;2023-02-15T05:53:24;78.93;;;34.08;;
33367;SDS011;19724;51.114;13.906;2023-02-15T05:55:52;93.97;;;36.17;;
33367;SDS011;19724;51.114;13.906;2023-02-15T05:58:22;81.13;;;36.20;;
33367;SDS011;19724;51.114;13.906;2023-02-15T06:00:49;85.90;;;35.92;;
33367;SDS011;19724;51.114;13.906;2023-02-15T06:03:14;85.13;;;36.78;;
33367;SDS011;19724;51.114;13.906;2023-02-15T06:05:40;81.15;;;35.60;;
33367;SDS011;19724;51.114;13.906;2023-02-15T06:08:05;88.75;;;37.53;;
33367;SDS011;19724;51.114;13.906;2023-02-15T06:10:31;83.47;;;37.75;;
33367;SDS011;19724;51.114;13.906;2023-02-15T06:12:56;79.45;;;37.90;;
33367;SDS011;19724;51.114;13.906;2023-02-15T06:15:21;94.65;;;39.20;;
33367;SDS011;19724;51.114;13.906;2023-02-15T06:17:47;89.30;;;37.30;;
33367;SDS011;19724;51.114;13.906;2023-02-15T06:20:13;73.72;;;34.15;;
33367;SDS011;19724;51.114;13.906;2023-02-15T06:22:39;87.65;;;38.45;;
33367;SDS011;19724;51.114;13.906;2023-02-15T06:25:05;85.78;;;35.95;;
33367;SDS011;19724;51.114;13.906;2023-02-15T06:27:30;80.38;;;37.45;;
33367;SDS011;19724;51.114;13.906;2023-02-15T06:29:56;80.78;;;34.85;;
33367;SDS011;19724;51.114;13.906;2023-02-15T06:32:22;81.82;;;35.15;;
33367;SDS011;19724;51.114;13.906;2023-02-15T06:34:47;78.70;;;35.85;;
33367;SDS011;19724;51.114;13.906;2023-02-15T06:37:13;72.05;;;35.65;;
33367;SDS011;19724;51.114;13.906;2023-02-15T06:39:38;79.53;;;37.38;;
33367;SDS011;19724;51.114;13.906;2023-02-15T06:42:04;75.28;;;36.90;;
33367;SDS011;19724;51.114;13.906;2023-02-15T06:44:29;74.97;;;36.22;;
33367;SDS011;19724;51.114;13.906;2023-02-15T06:46:55;66.07;;;30.90;;
33367;SDS011;19724;51.114;13.906;2023-02-15T06:49:20;69.85;;;33.40;;
33367;SDS011;19724;51.114;13.906;2023-02-15T06:51:46;73.95;;;34.17;;
33367;SDS011;19724;51.114;13.906;2023-02-15T06:54:11;70.85;;;32.85;;
33367;SDS011;19724;51.114;13.906;2023-02-15T06:56:37;66.57;;;30.55;;
33367;SDS011;19724;51.114;13.906;2023-02-15T06:59:04;72.43;;;32.70;;
33367;SDS011;19724;51.114;13.906;2023-02-15T07:01:30;73.65;;;33.95;;
33367;SDS011;19724;51.114;13.906;2023-02-15T07:03:55;78.15;;;33.80;;
33367;SDS011;19724;51.114;13.906;2023-02-15T07:06:21;77.18;;;33.60;;
33367;SDS011;19724;51.114;13.906;2023-02-15T07:08:46;70.13;;;31.67;;
33367;SDS011;19724;51.114;13.906;2023-02-15T07:11:12;74.57;;;35.05;;
33367;SDS011;19724;51.114;13.906;2023-02-15T07:13:56;59.97;;;25.85;;
33367;SDS011;19724;51.114;13.906;2023-02-15T07:16:21;65.75;;;32.85;;
33367;SDS011;19724;51.114;13.906;2023-02-15T07:18:47;66.95;;;33.35;;
33367;SDS011;19724;51.114;13.906;2023-02-15T07:21:14;61.78;;;30.85;;
33367;SDS011;19724;51.114;13.906;2023-02-15T07:23:39;66.72;;;32.25;;
33367;SDS011;19724;51.114;13.906;2023-02-15T07:26:05;63.60;;;29.52;;
33367;SDS011;19724;51.114;13.906;2023-02-15T07:28:35;59.85;;;27.63;;
33367;SDS011;19724;51.114;13.906;2023-02-15T07:31:01;61.53;;;29.80;;
33367;SDS011;19724;51.114;13.906;2023-02-15T07:33:29;56.35;;;27.75;;
33367;SDS011;19724;51.114;13.906;2023-02-15T07:36:00;66.88;;;31.33;;
33367;SDS011;19724;51.114;13.906;2023-02-15T07:38:29;62.00;;;29.42;;
33367;SDS011;19724;51.114;13.906;2023-02-15T07:41:03;48.53;;;25.33;;
33367;SDS011;19724;51.114;13.906;2023-02-15T07:43:34;55.05;;;26.50;;
33367;SDS011;19724;51.114;13.906;2023-02-15T07:46:02;52.38;;;27.02;;
33367;SDS011;19724;51.114;13.906;2023-02-15T07:48:29;57.17;;;27.50;;
33367;SDS011;19724;51.114;13.906;2023-02-15T07:51:02;52.78;;;25.88;;
33367;SDS011;19724;51.114;13.906;2023-02-15T07:53:30;54.42;;;25.58;;
33367;SDS011;19724;51.114;13.906;2023-02-15T07:55:59;51.28;;;26.13;;
33367;SDS011;19724;51.114;13.906;2023-02-15T07:58:29;52.40;;;26.88;;
33367;SDS011;19724;51.114;13.906;2023-02-15T08:01:13;54.22;;;27.05;;
33367;SDS011;19724;51.114;13.906;2023-02-15T08:03:39;49.58;;;26.65;;
33367;SDS011;19724;51.114;13.906;2023-02-15T08:06:05;51.70;;;27.30;;
33367;SDS011;19724;51.114;13.906;2023-02-15T08:08:33;46.60;;;25.05;;
33367;SDS011;19724;51.114;13.906;2023-02-15T08:11:05;45.50;;;24.67;;
33367;SDS011;19724;51.114;13.906;2023-02-15T08:13:59;52.95;;;26.40;;
33367;SDS011;19724;51.114;13.906;2023-02-15T08:16:58;48.90;;;26.15;;
33367;SDS011;19724;51.114;13.906;2023-02-15T08:19:28;50.75;;;26.50;;
33367;SDS011;19724;51.114;13.906;2023-02-15T08:22:00;47.53;;;26.48;;
33367;SDS011;19724;51.114;13.906;2023-02-15T08:24:28;51.03;;;25.58;;
33367;SDS011;19724;51.114;13.906;2023-02-15T08:26:57;44.53;;;24.05;;
33367;SDS011;19724;51.114;13.906;2023-02-15T08:29:24;36.78;;;21.55;;
33367;SDS011;19724;51.114;13.906;2023-02-15T08:32:05;43.15;;;21.33;;
33367;SDS011;19724;51.114;13.906;2023-02-15T08:34:34;38.92;;;22.08;;
33367;SDS011;19724;51.114;13.906;2023-02-15T08:37:01;46.13;;;23.85;;
33367;SDS011;19724;51.114;13.906;2023-02-15T08:39:27;41.88;;;22.90;;
33367;SDS011;19724;51.114;13.906;2023-02-15T08:41:53;40.75;;;22.92;;
33367;SDS011;19724;51.114;13.906;2023-02-15T08:44:19;36.78;;;21.05;;
33367;SDS011;19724;51.114;13.906;2023-02-15T08:46:47;37.85;;;21.63;;
33367;SDS011;19724;51.114;13.906;2023-02-15T08:49:18;38.83;;;21.70;;
33367;SDS011;19724;51.114;13.906;2023-02-15T08:51:45;41.33;;;22.73;;
33367;SDS011;19724;51.114;13.906;2023-02-15T08:54:12;42.33;;;22.63;;
33367;SDS011;19724;51.114;13.906;2023-02-15T08:56:41;40.80;;;22.60;;
33367;SDS011;19724;51.114;13.906;2023-02-15T08:59:12;42.47;;;23.08;;
33367;SDS011;19724;51.114;13.906;2023-02-15T09:01:39;40.58;;;22.98;;
33367;SDS011;19724;51.114;13.906;2023-02-15T09:04:06;38.28;;;22.98;;
33367;SDS011;19724;51.114;13.906;2023-02-15T09:06:33;35.20;;;21.77;;
33367;SDS011;19724;51.114;13.906;2023-02-15T09:08:59;39.42;;;23.60;;
33367;SDS011;19724;51.114;13.906;2023-02-15T09:11:26;39.63;;;23.73;;
33367;SDS011;19724;51.114;13.906;2023-02-15T09:13:57;40.50;;;24.38;;
33367;SDS011;19724;51.114;13.906;2023-02-15T09:16:26;44.00;;;24.42;;
33367;SDS011;19724;51.114;13.906;2023-02-15T09:18:53;43.00;;;23.77;;
33367;SDS011;19724;51.114;13.906;2023-02-15T09:21:20;44.97;;;25.05;;
33367;SDS011;19724;51.114;13.906;2023-02-15T09:23:47;41.13;;;23.75;;
33367;SDS011;19724;51.114;13.906;2023-02-15T09:26:16;44.28;;;24.83;;
33367;SDS011;19724;51.114;13.906;2023-02-15T09:28:43;41.38;;;24.33;;
33367;SDS011;19724;51.114;13.906;2023-02-15T09:31:10;43.58;;;25.83;;
33367;SDS011;19724;51.114;13.906;2023-02-15T09:33:38;41.20;;;25.33;;
33367;SDS011;19724;51.114;13.906;2023-02-15T09:36:05;47.17;;;26.73;;
33367;SDS011;19724;51.114;13.906;2023-02-15T09:38:39;46.65;;;28.55;;
33367;SDS011;19724;51.114;13.906;2023-02-15T09:46:56;45.33;;;27.95;;
33367;SDS011;19724;51.114;13.906;2023-02-15T09:53:09;44.55;;;24.75;;
33367;SDS011;19724;51.114;13.906;2023-02-15T10:00:32;44.65;;;26.05;;
33367;SDS011;19724;51.114;13.906;2023-02-15T10:03:04;46.47;;;27.35;;
33367;SDS011;19724;51.114;13.906;2023-02-15T10:05:59;46.92;;;28.80;;
33367;SDS011;19724;51.114;13.906;2023-02-15T10:14:31;45.38;;;26.60;;
33367;SDS011;19724;51.114;13.906;2023-02-15T10:22:42;41.70;;;25.45;;
33367;SDS011;19724;51.114;13.906;2023-02-15T10:28:57;43.42;;;27.17;;
33367;SDS011;19724;51.114;13.906;2023-02-15T10:33:52;45.88;;;30.10;;
33367;SDS011;19724;51.114;13.906;2023-02-15T10:42:42;46.45;;;28.77;;
33367;SDS011;19724;51.114;13.906;2023-02-15T10:50:55;46.65;;;28.77;;
33367;SDS011;19724;51.114;13.906;2023-02-15T10:56:12;45.28;;;27.60;;
33367;SDS011;19724;51.114;13.906;2023-02-15T11:01:42;43.92;;;27.83;;
33367;SDS011;19724;51.114;13.906;2023-02-15T11:06:43;42.67;;;27.10;;
33367;SDS011;19724;51.114;13.906;2023-02-15T11:09:17;47.17;;;27.40;;
33367;SDS011;19724;51.114;13.906;2023-02-15T11:11:50;42.17;;;24.20;;
33367;SDS011;19724;51.114;13.906;2023-02-15T11:14:23;38.97;;;24.98;;
33367;SDS011;19724;51.114;13.906;2023-02-15T11:17:14;41.22;;;26.05;;
33367;SDS011;19724;51.114;13.906;2023-02-15T11:19:51;42.15;;;27.13;;
33367;SDS011;19724;51.114;13.906;2023-02-15T11:22:23;37.05;;;24.95;;
33367;SDS011;19724;51.114;13.906;2023-02-15T11:24:48;42.15;;;25.63;;
33367;SDS011;19724;51.114;13.906;2023-02-15T11:29:52;41.20;;;25.92;;
33367;SDS011;19724;51.114;13.906;2023-02-15T11:32:23;41.95;;;26.33;;
33367;SDS011;19724;51.114;13.906;2023-02-15T11:35:01;38.75;;;24.08;;
33367;SDS011;19724;51.114;13.906;2023-02-15T11:37:44;40.38;;;25.00;;
33367;SDS011;19724;51.114;13.906;2023-02-15T11:40:29;38.00;;;25.20;;
33367;SDS011;19724;51.114;13.906;2023-02-15T11:45:49;38.70;;;23.83;;
33367;SDS011;19724;51.114;13.906;2023-02-15T11:48:14;39.08;;;25.92;;
33367;SDS011;19724;51.114;13.906;2023-02-15T11:50:41;37.90;;;26.13;;
33367;SDS011;19724;51.114;13.906;2023-02-15T11:53:12;38.20;;;24.25;;
33367;SDS011;19724;51.114;13.906;2023-02-15T11:55:41;37.38;;;25.02;;
33367;SDS011;19724;51.114;13.906;2023-02-15T11:58:12;41.88;;;25.30;;
33367;SDS011;19724;51.114;13.906;2023-02-15T12:01:02;37.00;;;25.63;;
33367;SDS011;19724;51.114;13.906;2023-02-15T12:03:48;40.25;;;26.73;;
33367;SDS011;19724;51.114;13.906;2023-02-15T12:06:18;41.42;;;23.52;;
33367;SDS011;19724;51.114;13.906;2023-02-15T12:08:54;31.92;;;21.38;;
33367;SDS011;19724;51.114;13.906;2023-02-15T12:11:45;34.83;;;22.88;;
33367;SDS011;19724;51.114;13.906;2023-02-15T12:14:11;33.85;;;23.08;;
33367;SDS011;19724;51.114;13.906;2023-02-15T12:16:48;32.55;;;21.52;;
33367;SDS011;19724;51.114;13.906;2023-02-15T12:22:05;37.60;;;23.13;;
33367;SDS011;19724;51.114;13.906;2023-02-15T12:24:36;33.42;;;22.98;;
33367;SDS011;19724;51.114;13.906;2023-02-15T12:27:03;35.75;;;22.33;;
33367;SDS011;19724;51.114;13.906;2023-02-15T12:29:42;35.45;;;23.17;;
33367;SDS011;19724;51.114;13.906;2023-02-15T12:35:13;34.60;;;23.83;;
33367;SDS011;19724;51.114;13.906;2023-02-15T12:37:40;36.25;;;23.65;;
33367;SDS011;19724;51.114;13.906;2023-02-15T12:40:29;43.03;;;23.98;;
33367;SDS011;19724;51.114;13.906;2023-02-15T12:42:56;38.40;;;25.83;;
33367;SDS011;19724;51.114;13.906;2023-02-15T12:45:27;37.33;;;24.27;;
33367;SDS011;19724;51.114;13.906;2023-02-15T12:50:38;36.47;;;24.92;;
33367;SDS011;19724;51.114;13.906;2023-02-15T12:53:06;37.55;;;25.33;;
33367;SDS011;19724;51.114;13.906;2023-02-15T12:55:51;36.15;;;23.85;;
33367;SDS011;19724;51.114;13.906;2023-02-15T12:58:25;38.95;;;26.27;;
33367;SDS011;19724;51.114;13.906;2023-02-15T13:01:28;39.72;;;25.40;;
33367;SDS011;19724;51.114;13.906;2023-02-15T13:06:30;37.75;;;24.25;;
33367;SDS011;19724;51.114;13.906;2023-02-15T13:09:13;36.60;;;26.15;;
33367;SDS011;19724;51.114;13.906;2023-02-15T13:11:41;40.67;;;26.10;;
33367;SDS011;19724;51.114;13.906;2023-02-15T13:16:47;39.33;;;26.45;;
33367;SDS011;19724;51.114;13.906;2023-02-15T13:19:19;40.53;;;27.65;;
33367;SDS011;19724;51.114;13.906;2023-02-15T13:21:51;43.63;;;28.88;;
33367;SDS011;19724;51.114;13.906;2023-02-15T13:24:22;43.83;;;28.92;;
33367;SDS011;19724;51.114;13.906;2023-02-15T13:26:50;42.72;;;27.23;;
33367;SDS011;19724;51.114;13.906;2023-02-15T13:29:23;39.45;;;26.42;;
33367;SDS011;19724;51.114;13.906;2023-02-15T13:31:51;41.25;;;27.98;;
33367;SDS011;19724;51.114;13.906;2023-02-15T13:34:20;46.88;;;29.60;;
33367;SDS011;19724;51.114;13.906;2023-02-15T13:36:57;45.83;;;28.27;;
33367;SDS011;19724;51.114;13.906;2023-02-15T13:39:40;45.35;;;29.95;;
33367;SDS011;19724;51.114;13.906;2023-02-15T13:42:36;38.42;;;26.48;;
33367;SDS011;19724;51.114;13.906;2023-02-15T13:45:28;43.80;;;28.47;;
33367;SDS011;19724;51.114;13.906;2023-02-15T13:48:06;46.95;;;28.92;;
33367;SDS011;19724;51.114;13.906;2023-02-15T13:50:42;41.63;;;28.10;;
33367;SDS011;19724;51.114;13.906;2023-02-15T13:53:48;47.80;;;30.30;;
33367;SDS011;19724;51.114;13.906;2023-02-15T13:59:37;46.67;;;29.42;;
33367;SDS011;19724;51.114;13.906;2023-02-15T14:18:33;53.28;;;30.13;;
33367;SDS011;19724;51.114;13.906;2023-02-15T14:21:21;47.53;;;30.08;;
33367;SDS011;19724;51.114;13.906;2023-02-15T14:23:59;46.35;;;30.30;;
33367;SDS011;19724;51.114;13.906;2023-02-15T14:29:56;43.22;;;29.30;;
33367;SDS011;19724;51.114;13.906;2023-02-15T14:35:04;45.65;;;29.83;;
33367;SDS011;19724;51.114;13.906;2023-02-15T14:38:10;46.75;;;30.40;;
33367;SDS011;19724;51.114;13.906;2023-02-15T14:43:30;48.88;;;29.83;;
33367;SDS011;19724;51.114;13.906;2023-02-15T14:57:31;63.78;;;32.15;;
33367;SDS011;19724;51.114;13.906;2023-02-15T14:59:38;48.15;;;29.42;;
33367;SDS011;19724;51.114;13.906;2023-02-15T15:10:23;48.47;;;30.17;;
33367;SDS011;19724;51.114;13.906;2023-02-15T15:12:58;48.72;;;29.23;;
33367;SDS011;19724;51.114;13.906;2023-02-15T15:18:50;48.88;;;29.00;;
33367;SDS011;19724;51.114;13.906;2023-02-15T15:35:24;61.10;;;34.45;;
33367;SDS011;19724;51.114;13.906;2023-02-15T15:49:44;57.83;;;32.20;;
33367;SDS011;19724;51.114;13.906;2023-02-15T15:52:17;55.45;;;32.15;;
33367;SDS011;19724;51.114;13.906;2023-02-15T15:54:44;54.57;;;31.03;;
33367;SDS011;19724;51.114;13.906;2023-02-15T15:57:17;59.80;;;32.80;;
33367;SDS011;19724;51.114;13.906;2023-02-15T15:59:50;64.28;;;33.88;;
33367;SDS011;19724;51.114;13.906;2023-02-15T16:02:18;65.30;;;36.67;;
33367;SDS011;19724;51.114;13.906;2023-02-15T16:04:44;65.97;;;35.85;;
33367;SDS011;19724;51.114;13.906;2023-02-15T16:07:20;64.30;;;34.70;;
33367;SDS011;19724;51.114;13.906;2023-02-15T16:12:25;53.80;;;30.35;;
33367;SDS011;19724;51.114;13.906;2023-02-15T16:14:52;61.08;;;32.88;;
33367;SDS011;19724;51.114;13.906;2023-02-15T16:17:25;59.70;;;30.90;;
33367;SDS011;19724;51.114;13.906;2023-02-15T16:19:59;60.25;;;31.55;;
33367;SDS011;19724;51.114;13.906;2023-02-15T16:23:00;54.58;;;30.92;;
33367;SDS011;19724;51.114;13.906;2023-02-15T16:26:02;58.55;;;31.30;;
33367;SDS011;19724;51.114;13.906;2023-02-15T16:28:47;61.67;;;31.80;;
33367;SDS011;19724;51.114;13.906;2023-02-15T16:31:19;56.83;;;32.55;;
33367;SDS011;19724;51.114;13.906;2023-02-15T16:33:53;52.70;;;30.45;;
33367;SDS011;19724;51.114;13.906;2023-02-15T16:41:15;62.70;;;34.55;;
33367;SDS011;19724;51.114;13.906;2023-02-15T16:43:52;63.70;;;32.08;;
33367;SDS011;19724;51.114;13.906;2023-02-15T16:46:26;60.83;;;32.58;;
33367;SDS011;19724;51.114;13.906;2023-02-15T16:49:00;54.55;;;31.42;;
33367;SDS011;19724;51.114;13.906;2023-02-15T16:51:31;62.78;;;30.90;;
33367;SDS011;19724;51.114;13.906;2023-02-15T16:54:01;64.93;;;34.08;;
33367;SDS011;19724;51.114;13.906;2023-02-15T16:56:30;68.00;;;35.08;;
33367;SDS011;19724;51.114;13.906;2023-02-15T16:58:57;66.97;;;34.38;;
33367;SDS011;19724;51.114;13.906;2023-02-15T17:01:24;69.80;;;32.72;;
33367;SDS011;19724;51.114;13.906;2023-02-15T17:04:20;67.40;;;33.95;;
33367;SDS011;19724;51.114;13.906;2023-02-15T17:07:04;67.68;;;33.70;;
33367;SDS011;19724;51.114;13.906;2023-02-15T17:09:41;67.68;;;32.85;;
33367;SDS011;19724;51.114;13.906;2023-02-15T17:13:03;67.70;;;33.83;;
33367;SDS011;19724;51.114;13.906;2023-02-15T17:18:06;74.30;;;35.55;;
33367;SDS011;19724;51.114;13.906;2023-02-15T17:20:43;70.57;;;33.25;;
33367;SDS011;19724;51.114;13.906;2023-02-15T17:23:22;72.45;;;36.65;;
33367;SDS011;19724;51.114;13.906;2023-02-15T17:25:54;67.78;;;35.03;;